Time;durP1;ratioP1;P1;durP2;ratioP2;P2;SDS_P1;SDS_P2;PMS_P1;PMS_P2;Temp;Humidity;BMP_temperature;BMP_pressure;BME280_temperature;BME280_humidity;BME280_pressure;Samples;Min_cycle;Max_cycle;Signal;HPM_P1;HPM_P2
2023/01/30 00:00:22;;;;;;;25.20;13.50;;;;;;;3.29;100.00;100485.91;5090433;28;20028;-30
2023/01/30 00:02:47;;;;;;;24.88;13.23;;;;;;;3.35;100.00;100485.25;5090459;28;20020;-28
2023/01/30 00:05:13;;;;;;;25.70;14.15;;;;;;;3.42;100.00;100491.53;5089834;28;20381;-33
2023/01/30 00:07:38;;;;;;;25.55;12.82;;;;;;;3.16;100.00;100466.09;5072253;28;20028;-29
2023/01/30 00:10:04;;;;;;;25.73;13.25;;;;;;;3.10;100.00;100479.91;5090182;28;20028;-32
2023/01/30 00:12:29;;;;;;;24.70;12.77;;;;;;;3.10;100.00;100444.84;5072175;28;20521;-28
2023/01/30 00:14:55;;;;;;;23.50;13.90;;;;;;;2.89;100.00;100459.28;5090277;28;20028;-28
2023/01/30 00:17:20;;;;;;;26.48;13.75;;;;;;;3.19;100.00;100473.69;5090038;28;20043;-29
2023/01/30 00:19:46;;;;;;;25.20;13.13;;;;;;;3.07;100.00;100474.16;5090041;28;20036;-32
2023/01/30 00:22:11;;;;;;;27.65;16.10;;;;;;;2.86;100.00;100461.38;5090560;28;20103;-30
2023/01/30 00:24:37;;;;;;;29.92;18.80;;;;;;;3.09;100.00;100475.66;5071986;28;20036;-30
2023/01/30 00:27:02;;;;;;;22.35;13.00;;;;;;;2.90;100.00;100449.53;5090110;28;20476;-29
2023/01/30 00:29:27;;;;;;;20.92;11.80;;;;;;;3.03;100.00;100481.56;5071559;28;20100;-29
2023/01/30 00:31:53;;;;;;;30.60;20.35;;;;;;;2.95;100.00;100463.09;5089957;28;20023;-30
2023/01/30 00:34:18;;;;;;;22.45;11.93;;;;;;;3.12;100.00;100475.31;5089856;28;20391;-31
2023/01/30 00:36:44;;;;;;;38.03;19.80;;;;;;;3.09;100.00;100473.00;5089877;28;20055;-33
2023/01/30 00:39:09;;;;;;;29.92;19.92;;;;;;;3.17;100.00;100475.66;5089854;28;20073;-30
2023/01/30 00:47:05;;;;;;;22.98;12.35;;;;;;;2.88;100.00;100436.56;5089577;28;20039;-28
2023/01/30 00:49:31;;;;;;;22.10;11.23;;;;;;;2.76;100.00;100430.75;5089632;28;20028;-29
2023/01/30 00:51:57;;;;;;;24.15;14.05;;;;;;;3.14;100.00;100457.53;5071567;28;20028;-29
2023/01/30 00:54:23;;;;;;;24.67;14.48;;;;;;;2.89;100.00;100421.56;5089828;28;20024;-29
2023/01/30 00:56:48;;;;;;;23.70;12.48;;;;;;;3.15;100.00;100459.19;5089737;28;20397;-29
2023/01/30 00:59:13;;;;;;;23.10;11.98;;;;;;;3.06;100.00;100444.31;5089341;28;20028;-30
2023/01/30 01:01:39;;;;;;;27.05;14.27;;;;;;;3.29;100.00;100449.00;5089507;28;20050;-28
2023/01/30 01:04:06;;;;;;;23.15;11.85;;;;;;;3.27;100.00;100440.41;5089694;28;20028;-29
2023/01/30 01:06:31;;;;;;;24.55;11.77;;;;;;;3.26;100.00;100446.69;5089796;28;20036;-29
2023/01/30 01:08:57;;;;;;;23.10;11.85;;;;;;;3.17;100.00;100440.59;5071388;28;20392;-28
2023/01/30 01:11:25;;;;;;;23.55;11.93;;;;;;;3.06;100.00;100449.59;5089247;28;20561;-33
2023/01/30 01:13:56;;;;;;;22.30;11.95;;;;;;;3.15;100.00;100459.19;5089367;28;20028;-28
2023/01/30 01:16:23;;;;;;;20.98;11.93;;;;;;;2.88;100.00;100446.25;5071248;28;20075;-33
2023/01/30 01:18:49;;;;;;;26.70;13.00;;;;;;;3.00;100.00;100447.59;5089720;28;20496;-29
2023/01/30 01:21:15;;;;;;;25.83;13.27;;;;;;;3.03;100.00;100423.59;5090185;28;20039;-29
2023/01/30 01:23:40;;;;;;;23.25;12.48;;;;;;;2.97;100.00;100445.31;5075467;28;20028;-31
2023/01/30 01:26:06;;;;;;;26.90;13.55;;;;;;;3.01;100.00;100441.38;5093579;28;20035;-31
2023/01/30 01:28:31;;;;;;;38.65;16.83;;;;;;;2.96;100.00;100446.28;5093749;28;20036;-31
2023/01/30 01:30:57;;;;;;;23.35;11.98;;;;;;;3.07;100.00;100438.09;5093529;28;20024;-32
2023/01/30 01:33:26;;;;;;;22.95;12.10;;;;;;;2.89;100.00;100432.91;5093279;28;20103;-30
2023/01/30 01:35:56;;;;;;;21.08;11.60;;;;;;;2.79;100.00;100430.41;5093707;28;20122;-30
2023/01/30 01:38:21;;;;;;;23.95;12.13;;;;;;;2.98;100.00;100449.56;5093443;28;20131;-29
2023/01/30 01:41:01;;;;;;;26.15;13.30;;;;;;;3.03;100.00;100443.84;5093160;28;20114;-30
2023/01/30 01:43:31;;;;;;;36.22;15.35;;;;;;;2.92;100.00;100423.88;5093231;28;20063;-29
2023/01/30 01:46:08;;;;;;;24.67;11.35;;;;;;;2.94;100.00;100440.34;5075130;28;20123;-29
2023/01/30 01:48:40;;;;;;;22.42;11.00;;;;;;;2.66;100.00;100424.78;5093345;28;20044;-32
2023/01/30 01:51:18;;;;;;;21.92;11.13;;;;;;;2.79;100.00;100427.78;5074811;28;20028;-28
2023/01/30 01:53:53;;;;;;;31.63;13.70;;;;;;;2.79;100.00;100433.03;5093369;28;20111;-30
2023/01/30 01:56:19;;;;;;;30.25;13.70;;;;;;;2.79;100.00;100417.25;5093369;28;20032;-28
2023/01/30 01:58:50;;;;;;;25.25;11.65;;;;;;;2.98;100.00;100431.13;5093126;28;20028;-28
2023/01/30 02:01:16;;;;;;;21.48;11.32;;;;;;;2.80;100.00;100418.91;5092662;28;20031;-31
2023/01/30 02:03:46;;;;;;;22.52;11.52;;;;;;;2.58;100.00;100403.69;5092893;28;20232;-28
2023/01/30 02:06:14;;;;;;;22.98;11.63;;;;;;;2.78;100.00;100426.16;5092803;28;20024;-28
2023/01/30 02:08:44;;;;;;;25.25;13.23;;;;;;;2.97;100.00;100424.22;5093227;28;20024;-30
2023/01/30 02:11:24;;;;;;;22.52;12.65;;;;;;;2.94;100.00;100414.84;5092851;28;20039;-30
2023/01/30 02:13:50;;;;;;;22.63;12.40;;;;;;;2.76;100.00;100417.56;5093116;28;20039;-32
2023/01/30 02:16:16;;;;;;;21.05;11.05;;;;;;;2.78;100.00;100414.78;5092563;28;20450;-30
2023/01/30 02:18:44;;;;;;;19.48;10.48;;;;;;;2.92;100.00;100413.31;5092629;28;20043;-30
2023/01/30 02:21:47;;;;;;;22.67;11.17;;;;;;;3.16;100.00;100408.13;5092695;28;20512;-29
2023/01/30 02:24:15;;;;;;;24.02;11.65;;;;;;;3.13;100.00;100408.47;5092446;28;20020;-30
2023/01/30 02:27:05;;;;;;;20.80;10.95;;;;;;;3.03;100.00;100406.97;5092369;28;20039;-32
2023/01/30 02:29:52;;;;;;;24.38;12.55;;;;;;;3.02;100.00;100400.84;5074049;28;20031;-30
2023/01/30 02:32:23;;;;;;;20.73;10.75;;;;;;;3.00;100.00;100393.13;5092417;28;20491;-29
2023/01/30 02:35:18;;;;;;;20.98;10.35;;;;;;;2.92;100.00;100405.44;5092554;28;20032;-30
2023/01/30 02:37:52;;;;;;;21.02;11.38;;;;;;;2.76;100.00;100398.31;5091958;28;20058;-30
2023/01/30 02:40:40;;;;;;;18.77;10.13;;;;;;;2.91;100.00;100395.91;5092184;28;20035;-29
2023/01/30 02:43:26;;;;;;;20.80;10.27;;;;;;;2.54;100.00;100381.28;5092112;28;20565;-30
2023/01/30 02:46:01;;;;;;;21.27;11.15;;;;;;;2.87;100.00;100391.94;5092071;28;20048;-29
2023/01/30 02:48:38;;;;;;;21.70;11.65;;;;;;;2.94;100.00;100392.91;5092236;28;20089;-30
2023/01/30 02:51:16;;;;;;;20.17;10.55;;;;;;;2.81;100.00;100381.03;5092009;28;20136;-28
2023/01/30 02:53:42;;;;;;;23.73;12.20;;;;;;;2.78;100.00;100386.63;5092028;28;20024;-30
2023/01/30 02:56:07;;;;;;;26.33;13.13;;;;;;;2.78;100.00;100370.84;5073635;28;20036;-29
2023/01/30 02:58:38;;;;;;;23.27;11.38;;;;;;;2.90;100.00;100381.06;5092088;28;20020;-28
2023/01/30 03:01:11;;;;;;;22.15;11.65;;;;;;;2.92;100.00;100389.63;5091938;28;20063;-28
2023/01/30 03:03:39;;;;;;;23.50;12.43;;;;;;;2.97;100.00;100397.88;5073412;28;20028;-28
2023/01/30 03:06:23;;;;;;;;;;;;;;;3.03;100.00;100401.69;5073955;28;20050;-28
2023/01/30 03:09:26;;;;;;;20.77;10.68;;;;;;;2.83;100.00;100396.69;5073343;28;20472;-30
2023/01/30 03:12:12;;;;;;;23.10;10.38;;;;;;;2.97;100.00;100401.34;5091755;28;20408;-30
2023/01/30 03:14:53;;;;;;;25.25;13.45;;;;;;;3.03;100.00;100396.41;5091731;28;20034;-28
2023/01/30 03:17:22;;;;;;;25.50;12.18;;;;;;;3.01;100.00;100373.69;5091143;28;20480;-30
2023/01/30 03:19:48;;;;;;;23.95;12.35;;;;;;;3.21;100.00;100399.75;5073404;28;20024;-30
2023/01/30 03:22:13;;;;;;;26.33;12.65;;;;;;;3.31;100.00;100399.56;5091247;28;20027;-33
2023/01/30 03:24:39;;;;;;;24.25;12.10;;;;;;;3.05;100.00;100374.19;5091393;28;20024;-30
2023/01/30 03:27:11;;;;;;;27.25;13.15;;;;;;;2.98;100.00;100371.38;5091261;28;20019;-31
2023/01/30 03:29:37;;;;;;;23.88;13.77;;;;;;;3.09;100.00;100391.31;5090812;28;20032;-30
2023/01/30 03:32:03;;;;;;;26.83;14.75;;;;;;;3.11;100.00;100389.34;5091340;28;20035;-29
2023/01/30 03:34:28;;;;;;;36.50;18.50;;;;;;;3.05;100.00;100357.56;5091301;28;20039;-29
2023/01/30 03:36:54;;;;;;;39.78;17.92;;;;;;;3.05;100.00;100362.84;5072628;28;20730;-30
2023/01/30 03:39:21;;;;;;;30.85;15.77;;;;;;;2.98;100.00;100367.91;5090826;28;20032;-30
2023/01/30 03:41:47;;;;;;;29.42;14.88;;;;;;;3.03;100.00;100367.44;5090930;28;20119;-30
2023/01/30 03:44:12;;;;;;;38.53;17.35;;;;;;;2.93;100.00;100381.56;5090221;28;20518;-28
2023/01/30 03:46:37;;;;;;;39.60;20.88;;;;;;;3.02;100.00;100385.03;5091084;28;20514;-29
2023/01/30 03:49:03;;;;;;;31.80;17.25;;;;;;;2.94;100.00;100375.31;5090866;28;20096;-28
2023/01/30 03:51:28;;;;;;;36.50;18.45;;;;;;;2.77;100.00;100366.53;5090537;28;20039;-30
2023/01/30 03:53:54;;;;;;;29.50;15.65;;;;;;;2.93;100.00;100380.75;5090717;28;20020;-30
2023/01/30 03:56:19;;;;;;;27.85;15.00;;;;;;;3.04;100.00;100379.59;5072474;28;20039;-29
2023/01/30 03:58:44;;;;;;;29.50;15.98;;;;;;;2.80;100.00;100345.16;5091185;28;20459;-29
2023/01/30 04:01:10;;;;;;;44.65;23.85;;;;;;;2.98;100.00;100376.66;5090647;28;20027;-34
2023/01/30 04:03:35;;;;;;;55.42;31.60;;;;;;;2.89;100.00;100379.41;5090402;28;20020;-30
2023/01/30 04:06:01;;;;;;;29.88;15.98;;;;;;;2.86;100.00;100369.19;5090585;28;20052;-28
2023/01/30 04:08:26;;;;;;;33.13;17.35;;;;;;;2.76;100.00;100378.06;5072311;28;20073;-30
2023/01/30 04:10:52;;;;;;;27.05;15.25;;;;;;;2.77;100.00;100361.28;5090280;28;20032;-29
2023/01/30 04:13:17;;;;;;;29.60;16.02;;;;;;;2.84;100.00;100371.16;5071705;28;20032;-29
2023/01/30 04:15:43;;;;;;;28.42;14.00;;;;;;;2.74;100.00;100353.72;5090504;28;20032;-28
2023/01/30 04:18:08;;;;;;;27.35;14.55;;;;;;;2.90;100.00;100378.41;5056750;28;20113;-30
2023/01/30 04:20:34;;;;;;;31.63;14.02;;;;;;;2.88;100.00;100377.75;5052047;28;20477;-36
2023/01/30 04:22:59;;;;;;;25.25;13.73;;;;;;;2.80;100.00;100355.69;5069998;28;20119;-32
2023/01/30 04:25:25;;;;;;;27.88;15.68;;;;;;;3.00;100.00;100379.09;5069687;28;20029;-32
2023/01/30 04:27:50;;;;;;;25.63;13.25;;;;;;;2.98;100.00;100375.81;5069579;28;20025;-29
2023/01/30 04:30:16;;;;;;;28.85;15.18;;;;;;;2.94;100.00;100377.13;5069826;28;20028;-30
2023/01/30 04:32:41;;;;;;;26.48;14.13;;;;;;;2.98;100.00;100379.28;5051844;28;20020;-30
2023/01/30 04:35:07;;;;;;;24.15;12.82;;;;;;;2.91;100.00;100359.00;5051715;28;20035;-30
2023/01/30 04:37:32;;;;;;;29.38;15.93;;;;;;;2.99;100.00;100380.09;5069597;28;20064;-30
2023/01/30 04:39:58;;;;;;;31.98;19.13;;;;;;;2.68;100.00;100361.44;5069763;28;20021;-36
2023/01/30 04:42:23;;;;;;;39.50;21.75;;;;;;;3.04;100.00;100372.53;5069878;28;20050;-31
2023/01/30 04:44:49;;;;;;;39.72;19.52;;;;;;;3.21;100.00;100373.38;5069590;28;20027;-31
2023/01/30 04:47:15;;;;;;;37.50;18.58;;;;;;;3.06;100.00;100364.47;5069582;28;20028;-29
2023/01/30 04:49:40;;;;;;;31.73;15.68;;;;;;;3.03;100.00;100360.34;5069939;28;20020;-28
2023/01/30 04:52:06;;;;;;;73.10;56.20;;;;;;;3.11;100.00;100367.44;5069673;28;20166;-29
2023/01/30 04:54:31;;;;;;;62.58;38.75;;;;;;;3.16;100.00;100370.41;5069512;28;20471;-28
2023/01/30 04:56:56;;;;;;;136.48;74.55;;;;;;;3.04;100.00;100372.53;5068568;28;20035;-28
2023/01/30 04:59:22;;;;;;;46.00;23.60;;;;;;;3.15;100.00;100376.69;5051493;28;20024;-33
2023/01/30 05:01:48;;;;;;;233.75;109.43;;;;;;;2.95;100.00;100349.78;5051507;28;20507;-28
2023/01/30 05:04:13;;;;;;;187.48;93.90;;;;;;;3.18;100.00;100379.78;5069554;28;20028;-29
2023/01/30 05:06:39;;;;;;;50.65;28.08;;;;;;;3.31;98.84;100383.75;5069720;28;20047;-28
2023/01/30 05:09:04;;;;;;;36.28;17.80;;;;;;;3.29;99.37;100352.31;5069384;28;20029;-29
2023/01/30 05:11:31;;;;;;;31.35;14.68;;;;;;;3.30;97.64;100366.31;5068874;28;20478;-28
2023/01/30 05:13:57;;;;;;;28.55;14.15;;;;;;;3.14;96.75;100367.94;5077891;28;20055;-30
2023/01/30 05:16:23;;;;;;;28.33;13.52;;;;;;;3.09;94.22;100359.69;5089011;28;20055;-33
2023/01/30 05:18:50;;;;;;;28.23;14.60;;;;;;;3.26;93.59;100360.53;5070979;28;20535;-30
2023/01/30 05:21:21;;;;;;;26.27;12.75;;;;;;;3.39;91.29;100386.41;5088698;28;20028;-38
2023/01/30 05:23:47;;;;;;;28.05;13.82;;;;;;;3.17;93.77;100386.06;5068505;28;20507;-30
2023/01/30 05:26:14;;;;;;;26.45;11.55;;;;;;;3.27;90.31;100383.28;5088034;28;20044;-30
2023/01/30 05:28:41;;;;;;;28.67;12.63;;;;;;;3.13;92.46;100387.38;5070315;28;20511;-30
2023/01/30 05:31:11;;;;;;;35.13;13.00;;;;;;;2.89;90.87;100353.09;5070577;28;20032;-31
2023/01/30 05:33:38;;;;;;;31.77;14.25;;;;;;;3.20;90.75;100382.28;5088342;28;20024;-29
2023/01/30 05:36:05;;;;;;;30.38;12.68;;;;;;;3.25;90.74;100379.13;5088964;28;20036;-32
2023/01/30 05:38:31;;;;;;;28.50;13.13;;;;;;;3.13;91.04;100370.75;5088344;28;20044;-31
2023/01/30 05:40:58;;;;;;;24.27;11.68;;;;;;;3.06;88.90;100381.09;5088618;28;20050;-29
2023/01/30 05:43:23;;;;;;;27.98;12.85;;;;;;;3.12;89.97;100375.16;5070144;28;20025;-34
2023/01/30 05:45:56;;;;;;;24.80;11.50;;;;;;;3.01;89.60;100378.13;5070673;28;20035;-28
2023/01/30 05:48:22;;;;;;;26.50;10.98;;;;;;;2.68;87.97;100356.97;5070449;28;20153;-29
2023/01/30 05:50:52;;;;;;;24.88;11.02;;;;;;;2.86;88.89;100387.63;5088692;28;20028;-29
2023/01/30 05:53:18;;;;;;;30.20;11.93;;;;;;;2.81;88.59;100373.13;5088539;28;20094;-28
2023/01/30 05:55:44;;;;;;;24.95;11.27;;;;;;;2.81;89.61;100375.78;5089137;28;20032;-28
2023/01/30 05:58:10;;;;;;;24.63;11.85;;;;;;;2.79;88.71;100364.56;5089095;28;20039;-28
2023/01/30 06:00:35;;;;;;;24.88;12.90;;;;;;;2.92;90.43;100379.09;5070545;28;20031;-28
2023/01/30 06:03:01;;;;;;;34.45;15.68;;;;;;;3.01;88.96;100383.41;5088831;28;20111;-28
2023/01/30 06:05:26;;;;;;;37.72;16.65;;;;;;;3.11;86.91;100389.34;5088520;28;20035;-31
2023/01/30 06:07:51;;;;;;;28.05;12.82;;;;;;;3.05;88.33;100384.72;5072412;28;20024;-29
2023/01/30 06:10:17;;;;;;;27.08;13.00;;;;;;;3.11;87.33;100394.63;5092818;28;20028;-30
2023/01/30 06:12:42;;;;;;;22.88;10.77;;;;;;;3.04;86.80;100392.78;5092831;28;20107;-29
2023/01/30 06:15:08;;;;;;;36.58;15.75;;;;;;;2.86;87.01;100366.56;5092781;28;20109;-31
2023/01/30 06:17:34;;;;;;;25.52;12.10;;;;;;;2.89;87.17;100363.63;5091638;28;20028;-37
2023/01/30 06:19:59;;;;;;;52.08;20.45;;;;;;;3.10;88.81;100395.59;5074312;28;20032;-30
2023/01/30 06:22:25;;;;;;;31.10;14.25;;;;;;;3.08;85.98;100384.38;5073709;28;20032;-30
2023/01/30 06:24:50;;;;;;;45.00;17.13;;;;;;;3.02;85.97;100371.84;5092194;28;20024;-31
2023/01/30 06:27:15;;;;;;;113.95;36.50;;;;;;;3.20;88.72;100393.63;5091700;28;20020;-38
2023/01/30 06:29:41;;;;;;;52.67;20.10;;;;;;;3.22;86.58;100391.66;5091671;28;20024;-33
2023/01/30 06:32:08;;;;;;;31.27;14.35;;;;;;;3.39;86.15;100394.31;5091939;28;20035;-30
2023/01/30 06:34:34;;;;;;;30.48;13.05;;;;;;;3.42;85.24;100394.81;5091747;28;20049;-31
2023/01/30 06:36:59;;;;;;;29.45;15.43;;;;;;;3.41;85.62;100395.81;5091620;28;20445;-30
2023/01/30 06:39:24;;;;;;;31.52;14.80;;;;;;;3.50;84.02;100403.72;5091531;28;20555;-29
2023/01/30 06:41:50;;;;;;;27.88;12.93;;;;;;;3.39;84.01;100396.94;5073531;28;20035;-31
2023/01/30 06:44:15;;;;;;;27.52;13.68;;;;;;;3.47;83.22;100375.84;5091976;28;20031;-30
2023/01/30 06:46:40;;;;;;;28.90;13.95;;;;;;;3.63;82.34;100399.59;5091596;28;20458;-30
2023/01/30 06:49:06;;;;;;;34.25;16.38;;;;;;;3.57;83.53;100404.69;5088731;28;20415;-30
2023/01/30 06:51:31;;;;;;;23.40;11.93;;;;;;;3.41;81.11;100373.88;5073096;28;20066;-29
2023/01/30 06:53:57;;;;;;;30.20;14.45;;;;;;;3.62;83.04;100402.41;5090973;28;20016;-28
2023/01/30 06:56:22;;;;;;;25.75;12.05;;;;;;;3.87;82.92;100399.75;5090285;28;20032;-29
2023/01/30 06:58:48;;;;;;;26.88;12.32;;;;;;;3.95;79.54;100403.19;5091724;28;20052;-29
2023/01/30 07:01:13;;;;;;;38.10;19.80;;;;;;;3.69;83.81;100382.28;5091298;28;20042;-32
2023/01/30 07:03:39;;;;;;;31.42;16.92;;;;;;;3.83;83.36;100375.50;5091697;28;20028;-28
2023/01/30 07:06:04;;;;;;;29.60;14.98;;;;;;;4.14;80.70;100402.00;5091595;28;20032;-30
2023/01/30 07:08:30;;;;;;;24.92;11.30;;;;;;;4.08;80.87;100391.28;5091630;28;20051;-28
2023/01/30 07:10:55;;;;;;;22.67;10.27;;;;;;;4.02;80.09;100404.19;5091441;28;20027;-28
2023/01/30 07:13:21;;;;;;;31.75;13.68;;;;;;;3.81;78.65;100380.94;5091278;28;20027;-28
2023/01/30 07:15:46;;;;;;;26.13;12.00;;;;;;;3.89;80.25;100398.59;5091356;28;20044;-29
2023/01/30 07:18:12;;;;;;;22.65;9.85;;;;;;;4.01;79.04;100365.59;5072826;28;20028;-28
2023/01/30 07:20:37;;;;;;;18.80;9.02;;;;;;;4.15;80.05;100397.56;5072402;28;20035;-31
2023/01/30 07:23:03;;;;;;;23.77;10.68;;;;;;;4.16;78.81;100399.19;5091445;28;20059;-28
2023/01/30 07:25:29;;;;;;;22.17;9.55;;;;;;;3.94;77.94;100380.44;5072860;28;20032;-28
2023/01/30 07:28:00;;;;;;;23.15;11.15;;;;;;;3.96;79.84;100378.47;5091303;28;20027;-29
2023/01/30 07:30:28;;;;;;;20.45;9.15;;;;;;;3.89;79.90;100361.66;5091218;28;20040;-28
2023/01/30 07:32:56;;;;;;;18.23;8.10;;;;;;;3.82;78.17;100400.22;5072604;28;20417;-29
2023/01/30 07:35:23;;;;;;;22.73;10.65;;;;;;;3.59;79.79;100397.44;5090602;28;20039;-30
2023/01/30 07:37:49;;;;;;;22.13;9.63;;;;;;;3.78;79.76;100380.44;5090855;28;20052;-29
2023/01/30 07:40:16;;;;;;;20.05;8.10;;;;;;;3.74;79.04;100400.22;5072770;28;20055;-30
2023/01/30 07:42:42;;;;;;;19.20;10.13;;;;;;;3.81;80.38;100385.41;5072688;28;20036;-27
2023/01/30 07:45:08;;;;;;;22.98;10.18;;;;;;;3.67;82.35;100367.63;5072742;28;20028;-29
2023/01/30 07:47:34;;;;;;;18.17;8.50;;;;;;;3.67;79.54;100362.34;5072295;28;20044;-29
2023/01/30 07:49:59;;;;;;;21.70;9.95;;;;;;;3.76;80.76;100382.44;5090449;28;20103;-30
2023/01/30 07:52:24;;;;;;;20.23;9.52;;;;;;;3.88;81.19;100383.72;5091049;28;20078;-29
2023/01/30 07:54:50;;;;;;;21.35;9.48;;;;;;;3.70;81.31;100385.72;5090398;28;20017;-33
2023/01/30 07:57:15;;;;;;;22.67;10.07;;;;;;;3.77;81.09;100379.63;5090335;28;20089;-29
2023/01/30 07:59:41;;;;;;;19.27;8.70;;;;;;;3.53;82.15;100392.84;5090403;28;20031;-28
2023/01/30 08:02:09;;;;;;;18.02;8.18;;;;;;;3.36;83.31;100382.28;5090523;28;20129;-28
2023/01/30 08:04:34;;;;;;;21.73;9.55;;;;;;;3.30;83.20;100385.56;5090171;28;20430;-33
2023/01/30 08:06:59;;;;;;;20.13;8.52;;;;;;;3.32;83.61;100356.41;5090391;28;20032;-28
2023/01/30 08:09:25;;;;;;;20.35;8.43;;;;;;;3.23;86.09;100371.41;5090254;28;20032;-29
2023/01/30 08:11:50;;;;;;;20.02;8.90;;;;;;;3.07;85.88;100385.38;5089920;28;20031;-30
2023/01/30 08:14:16;;;;;;;19.40;8.82;;;;;;;2.90;87.42;100373.16;5090120;28;20483;-30
2023/01/30 08:16:41;;;;;;;17.38;7.95;;;;;;;2.80;86.77;100368.88;5089933;28;20099;-28
2023/01/30 08:19:06;;;;;;;17.13;8.88;;;;;;;3.06;86.35;100375.81;5089892;28;20027;-28
2023/01/30 08:21:32;;;;;;;20.55;7.88;;;;;;;3.25;86.56;100379.97;5071467;28;20122;-29
2023/01/30 08:23:57;;;;;;;24.25;11.27;;;;;;;3.38;87.04;100379.50;5090002;28;20106;-28
2023/01/30 08:26:23;;;;;;;27.00;12.20;;;;;;;3.38;86.28;100355.75;5071935;28;20063;-28
2023/01/30 08:28:48;;;;;;;26.17;13.63;;;;;;;3.49;86.54;100365.16;5071747;28;20020;-29
2023/01/30 08:31:15;;;;;;;18.80;8.50;;;;;;;3.48;85.36;100374.06;5089489;28;20038;-31
2023/01/30 08:33:41;;;;;;;23.42;10.68;;;;;;;3.37;85.95;100348.81;5071210;28;20027;-28
2023/01/30 08:36:07;;;;;;;28.17;9.57;;;;;;;3.25;86.30;100355.41;5071417;28;20043;-29
2023/01/30 08:38:32;;;;;;;18.08;9.20;;;;;;;3.17;86.26;100348.34;5089719;28;20028;-28
2023/01/30 08:40:59;;;;;;;18.88;7.50;;;;;;;3.10;85.56;100340.25;5089787;28;20039;-32
2023/01/30 08:43:25;;;;;;;25.90;14.65;;;;;;;3.41;86.41;100358.06;5089290;28;20024;-28
2023/01/30 08:45:55;;;;;;;18.00;8.25;;;;;;;3.62;84.94;100368.94;5089523;28;20389;-32
2023/01/30 08:48:20;;;;;;;20.27;8.70;;;;;;;3.61;85.63;100372.56;5089274;28;20667;-32
2023/01/30 08:50:45;;;;;;;16.85;7.65;;;;;;;3.47;84.70;100370.56;5089532;28;20039;-29
2023/01/30 08:53:11;;;;;;;21.40;8.07;;;;;;;3.62;86.40;100361.03;5089562;28;20032;-27
2023/01/30 08:55:36;;;;;;;16.80;7.95;;;;;;;3.72;84.59;100350.31;5089172;28;20032;-28
2023/01/30 08:58:02;;;;;;;15.45;7.78;;;;;;;3.61;83.29;100354.09;5089003;28;20035;-31
2023/01/30 09:00:28;;;;;;;12.75;6.18;;;;;;;3.76;83.15;100371.88;5070983;28;20031;-31
2023/01/30 09:02:55;;;;;;;19.45;7.63;;;;;;;3.67;83.06;100362.34;5070714;28;20051;-31
2023/01/30 09:05:21;;;;;;;17.20;8.68;;;;;;;3.84;82.99;100358.69;5089006;28;20040;-30
2023/01/30 09:07:47;;;;;;;21.98;9.98;;;;;;;4.01;83.57;100362.94;5071034;28;20028;-30
2023/01/30 09:10:12;;;;;;;19.77;9.57;;;;;;;4.11;82.01;100348.75;5070709;28;20031;-30
2023/01/30 09:12:38;;;;;;;21.27;9.65;;;;;;;4.26;83.05;100336.47;5070972;28;20073;-30
2023/01/30 09:15:04;;;;;;;19.05;7.97;;;;;;;4.41;82.97;100350.63;5088872;28;20028;-30
2023/01/30 09:17:29;;;;;;;21.13;8.77;;;;;;;4.57;82.42;100331.19;5087454;28;20028;-29
2023/01/30 09:19:55;;;;;;;19.30;8.93;;;;;;;4.56;81.43;100331.41;5088513;28;20044;-28
2023/01/30 09:22:20;;;;;;;20.73;9.85;;;;;;;4.36;81.28;100329.16;5088940;28;20025;-29
2023/01/30 09:24:46;;;;;;;21.17;9.82;;;;;;;4.35;81.29;100330.19;5070552;28;20028;-31
2023/01/30 09:27:11;;;;;;;17.35;7.82;;;;;;;4.13;78.30;100330.91;5088822;28;20024;-30
2023/01/30 09:29:36;;;;;;;16.15;8.50;;;;;;;4.09;80.66;100321.69;5070320;28;20694;-30
2023/01/30 09:32:02;;;;;;;21.75;10.02;;;;;;;4.36;81.07;100308.03;5089038;28;20089;-29
2023/01/30 09:34:27;;;;;;;27.85;13.60;;;;;;;3.88;80.96;100317.78;5070477;28;20035;-30
2023/01/30 09:37:01;;;;;;;22.95;11.80;;;;;;;3.93;81.90;100299.63;5088820;28;20044;-28
2023/01/30 09:39:27;;;;;;;18.13;9.70;;;;;;;3.92;81.58;100303.25;5070113;28;20675;-31
2023/01/30 09:41:53;;;;;;;20.75;9.77;;;;;;;4.10;80.94;100302.22;5089096;28;20119;-30
2023/01/30 09:44:33;;;;;;;18.83;9.68;;;;;;;4.13;82.38;100278.13;5074175;28;20028;-29
2023/01/30 09:47:09;;;;;;;15.75;8.95;;;;;;;4.50;80.57;100289.84;5093154;28;20035;-30
2023/01/30 09:49:44;;;;;;;20.40;9.23;;;;;;;5.00;78.31;100293.78;5092194;28;20051;-31
2023/01/30 09:52:12;;;;;;;19.52;7.95;;;;;;;4.67;76.14;100238.53;5092956;28;20404;-30
2023/01/30 09:54:41;;;;;;;18.77;8.35;;;;;;;5.00;77.02;100270.00;5092505;28;20118;-29
2023/01/30 09:57:07;;;;;;;16.38;7.95;;;;;;;4.70;76.41;100272.53;5074466;28;20612;-29
2023/01/30 09:59:54;;;;;;;18.73;7.63;;;;;;;4.90;78.16;100277.34;5092213;28;20028;-31
2023/01/30 10:02:43;;;;;;;21.65;9.90;;;;;;;4.54;76.91;100277.94;5092461;28;20484;-30
2023/01/30 10:05:09;;;;;;;16.80;7.40;;;;;;;4.22;78.15;100262.06;5092271;28;20465;-30
2023/01/30 10:08:03;;;;;;;19.50;9.15;;;;;;;4.28;80.98;100270.31;5091916;28;20038;-29
2023/01/30 10:10:48;;;;;;;18.77;8.48;;;;;;;4.43;79.41;100261.47;5074217;28;20025;-33
2023/01/30 10:13:32;;;;;;;19.55;8.30;;;;;;;4.15;78.69;100255.03;5073886;28;20115;-38
2023/01/30 10:16:11;;;;;;;19.42;9.35;;;;;;;4.26;78.82;100252.00;5092544;28;20121;-32
2023/01/30 10:18:48;;;;;;;18.13;9.32;;;;;;;4.48;78.30;100249.56;5074232;28;20055;-32
2023/01/30 10:21:22;;;;;;;17.50;7.43;;;;;;;4.27;76.17;100252.81;5091850;28;20060;-35
2023/01/30 10:23:53;;;;;;;20.92;9.98;;;;;;;4.34;77.32;100244.03;5092152;28;20047;-30
2023/01/30 10:26:23;;;;;;;16.02;7.78;;;;;;;4.45;78.42;100236.69;5092070;28;20087;-30
2023/01/30 10:29:01;;;;;;;17.20;8.85;;;;;;;4.69;77.38;100233.91;5092083;28;20028;-29
2023/01/30 10:31:33;;;;;;;19.05;8.65;;;;;;;4.42;76.16;100227.31;5091533;28;20042;-29
2023/01/30 10:34:05;;;;;;;20.73;9.07;;;;;;;4.35;76.88;100224.56;5091501;28;20028;-31
2023/01/30 10:36:44;;;;;;;22.52;11.52;;;;;;;4.61;78.35;100215.47;5073173;28;20052;-30
2023/01/30 10:39:50;;;;;;;14.13;7.15;;;;;;;4.70;76.29;100190.66;5092128;28;20035;-29
2023/01/30 10:42:27;;;;;;;15.23;8.55;;;;;;;4.52;75.45;100203.34;5072730;28;20036;-30
2023/01/30 10:44:59;;;;;;;21.73;9.67;;;;;;;4.76;76.95;100179.38;5091149;28;20483;-28
2023/01/30 10:47:43;;;;;;;17.38;7.95;;;;;;;4.59;74.86;100189.22;5072204;28;20028;-28
2023/01/30 10:50:46;;;;;;;19.25;9.52;;;;;;;4.46;76.99;100156.50;5091295;28;20729;-29
2023/01/30 10:53:22;;;;;;;20.55;9.35;;;;;;;4.36;76.04;100173.38;5089536;28;20044;-30
2023/01/30 10:55:55;;;;;;;18.52;7.97;;;;;;;3.88;76.81;100148.91;5091263;28;20103;-28
2023/01/30 10:58:45;;;;;;;17.58;8.38;;;;;;;4.14;76.98;100168.91;5091317;28;20016;-28
2023/01/30 11:01:15;;;;;;;20.10;8.80;;;;;;;4.08;78.31;100148.50;5073126;28;20028;-30
2023/01/30 11:03:55;;;;;;;17.63;9.05;;;;;;;3.95;78.30;100144.59;5072765;28;20020;-29
2023/01/30 11:06:23;;;;;;;18.85;8.10;;;;;;;4.17;78.20;100156.19;5091713;28;20028;-30
2023/01/30 11:08:49;;;;;;;22.05;10.23;;;;;;;4.08;79.61;100148.50;5091327;28;20016;-29
2023/01/30 11:11:47;;;;;;;15.40;8.15;;;;;;;4.11;79.45;100132.31;5072870;28;20081;-29
2023/01/30 11:14:13;;;;;;;19.67;9.45;;;;;;;3.94;79.04;100131.56;5075092;28;20032;-30
2023/01/30 11:16:54;;;;;;;19.45;9.90;;;;;;;4.12;79.83;100112.84;5090883;28;20515;-29
2023/01/30 11:19:33;;;;;;;25.35;11.32;;;;;;;4.31;80.05;100085.13;5090800;28;20023;-29
2023/01/30 11:22:04;;;;;;;22.42;12.18;;;;;;;4.43;78.63;100103.03;5072643;28;20043;-29
2023/01/30 11:24:42;;;;;;;15.75;8.02;;;;;;;4.06;78.00;100111.72;5090644;28;20518;-29
2023/01/30 11:27:17;;;;;;;18.23;8.65;;;;;;;3.98;79.99;100104.69;5072567;28;20028;-29
2023/01/30 11:29:43;;;;;;;25.30;9.68;;;;;;;3.95;79.16;100094.47;5090853;28;20021;-27